Home > Products > Valid Products > TAF

000
FTUS43 KLBF 031500 AAA
TAFVTN
TAF AMD
KVTN 031521Z 0315/0412 35014G24KT P6SM BKN150
     FM032100 03017G24KT P6SM SCT070 BKN150
     FM040000 05012KT P6SM SCT070 BKN150
     FM040300 04006KT P6SM SCT070 OVC150=



000
FTUS43 KLBF 031100
TAFVTN
TAF
KVTN 031128Z 0312/0412 33006KT P6SM BKN150
     FM031700 36014G21KT P6SM BKN100
     FM032100 03017G24KT P6SM SCT070 BKN150
     FM040000 05012KT P6SM SCT070 BKN150
     FM040300 04006KT P6SM SCT070 OVC150=



000
FTUS43 KLBF 031100
TAFVTN
TAF
KVTN 031128Z 0312/0412 33006KT P6SM BKN150
     FM031700 36014G21KT P6SM BKN100
     FM032100 03017G24KT P6SM SCT070 BKN150
     FM040000 05012KT P6SM SCT070 BKN150
     FM040300 04006KT P6SM SCT070 OVC150=



000
FTUS43 KLBF 031100
TAFLBF
TAF
KLBF 031128Z 0312/0412 VRB05KT P6SM SCT200
     FM031600 34006KT P6SM SCT150
     FM032000 36012KT P6SM SCT100
     FM040300 03013KT P6SM SCT050 BKN120 PROB30 0405/0407 5SM -TSRA
      BKN050CB=



000
FTUS43 KLBF 031100
TAFLBF
TAF
KLBF 031128Z 0312/0412 VRB05KT P6SM SCT200
     FM031600 34006KT P6SM SCT150
     FM032000 36012KT P6SM SCT100
     FM040300 03013KT P6SM SCT050 BKN120 PROB30 0405/0407 5SM -TSRA
      BKN050CB=



000
FTUS43 KLBF 030500
TAFVTN
TAF
KVTN 030520Z 0306/0406 25006KT P6SM SCT250
     FM031600 36014G21KT P6SM BKN100
     FM032100 03015G23KT P6SM SCT100
     FM040000 04012KT P6SM SCT250=



000
FTUS43 KLBF 030500
TAFLBF
TAF
KLBF 030520Z 0306/0406 VRB05KT P6SM BKN200
     FM031500 31008KT P6SM BKN100
     FM032000 36011KT P6SM SCT100
     FM040300 03013KT P6SM BKN090 PROB30 0404/0406 5SM -TSRA
      BKN050CB=



000
FTUS43 KLBF 022300
TAFVTN
TAF
KVTN 022320Z 0300/0324 17011KT P6SM SCT100
     FM030300 23006KT P6SM SCT250
     FM031600 36014G21KT P6SM SCT120 BKN200
     FM032100 03015G23KT P6SM SCT070=



000
FTUS43 KLBF 022300
TAFVTN
TAF
KVTN 022320Z 0300/0324 17011KT P6SM SCT100
     FM030300 23006KT P6SM SCT250
     FM031600 36014G21KT P6SM SCT120 BKN200
     FM032100 03015G23KT P6SM SCT070=



000
FTUS43 KLBF 022300
TAFLBF
TAF
KLBF 022320Z 0300/0324 20007KT P6SM BKN200
     FM030900 VRB05KT P6SM SCT250
     FM031500 31008KT P6SM SCT100
     FM031700 34008KT P6SM VCSH BKN100=



000
FTUS43 KLBF 022300
TAFLBF
TAF
KLBF 022320Z 0300/0324 20007KT P6SM BKN200
     FM030900 VRB05KT P6SM SCT250
     FM031500 31008KT P6SM SCT100
     FM031700 34008KT P6SM VCSH BKN100=



000
FTUS43 KLBF 022000 AAA
TAFLBF
TAF AMD
KLBF 022006Z 0220/0318 20011G18KT P6SM SKC
     FM030000 16005KT P6SM BKN150
     FM030900 VRB05KT 5SM HZ SCT250
     FM031500 31008KT P6SM SCT100=



000
FTUS43 KLBF 022000 AAA
TAFVTN
TAF AMD
KVTN 022005Z 0220/0318 20011G18KT P6SM SKC
     FM022200 20010KT P6SM BKN120
     FM030300 VRB06KT P6SM SCT250
     FM031500 34009KT P6SM SCT150=



000
FTUS43 KLBF 021700
TAFVTN
TAF
KVTN 021723Z 0218/0318 17011G16KT P6SM SKC
     FM022200 20010KT P6SM BKN120
     FM030300 VRB06KT P6SM SCT250
     FM031500 34009KT P6SM SCT150=



000
FTUS43 KLBF 021700
TAFLBF
TAF
KLBF 021723Z 0218/0318 18009KT P6SM SKC
     FM030000 16005KT P6SM BKN150
     FM030900 VRB05KT 5SM HZ SCT250
     FM031500 31008KT P6SM SCT100=



000
FTUS43 KLBF 021200 AAA
TAFLBF
TAF AMD
KLBF 021237Z 0213/0312 VRB03KT P6SM SCT200
      TEMPO 0213/0214 1/2SM FG
     FM021800 18008KT P6SM SCT200
     FM030000 14005KT P6SM BKN120=



000
FTUS43 KLBF 021100
TAFLBF
TAF
KLBF 021133Z 0212/0312 VRB03KT P6SM SCT200
      TEMPO 0212/0213 4SM BR
     FM021800 18008KT P6SM SCT200
     FM030000 14005KT P6SM BKN120=



000
FTUS43 KLBF 021100
TAFVTN
TAF
KVTN 021133Z 0212/0312 18005KT P6SM SKC
     FM021500 19007KT P6SM SKC
     FM021700 19012G18KT P6SM SCT200
     FM022200 19010KT P6SM BKN120=



000
FTUS43 KLBF 021100
TAFVTN
TAF
KVTN 021133Z 0212/0312 18005KT P6SM SKC
     FM021500 19007KT P6SM SKC
     FM021700 19012G18KT P6SM SCT200
     FM022200 19010KT P6SM BKN120=



000
FTUS43 KLBF 021100
TAFLBF
TAF
KLBF 021133Z 0212/0312 VRB03KT P6SM SCT200
      TEMPO 0212/0213 4SM BR
     FM021800 18008KT P6SM SCT200
     FM030000 14005KT P6SM BKN120=



000
FTUS43 KLBF 021100 AAA
TAFLBF
TAF AMD
KLBF 021104Z 0211/0306 VRB03KT P6SM SCT200
      TEMPO 0211/0213 1 1/2SM BR
     FM021700 18010KT P6SM SCT200
     FM022300 17008KT P6SM BKN090=



000
FTUS43 KLBF 021100 AAA
TAFLBF
TAF AMD
KLBF 021104Z 0211/0306 VRB03KT P6SM SCT200
      TEMPO 0211/0213 1 1/2SM BR
     FM021700 18010KT P6SM SCT200
     FM022300 17008KT P6SM BKN090=



000
FTUS43 KLBF 020600 AAA
TAFLBF
TAF AMD
KLBF 020626Z 0206/0306 34011G19KT P6SM -TSRA SCT035CB BKN060 OVC110
     FM020700 VRB04KT P6SM SCT060 BKN110
     FM020900 VRB03KT P6SM SCT200
     FM021700 18010KT P6SM SCT200
     FM022300 17008KT P6SM BKN090=



000
FTUS43 KLBF 020600 AAA
TAFLBF
TAF AMD
KLBF 020626Z 0206/0306 34011G19KT P6SM -TSRA SCT035CB BKN060 OVC110
     FM020700 VRB04KT P6SM SCT060 BKN110
     FM020900 VRB03KT P6SM SCT200
     FM021700 18010KT P6SM SCT200
     FM022300 17008KT P6SM BKN090=



000
FTUS43 KLBF 020500
TAFVTN
TAF
KVTN 020520Z 0206/0306 18005KT P6SM SKC
     FM021700 19012G18KT P6SM SCT200
     FM022200 19010KT P6SM BKN090=



000
FTUS43 KLBF 020500
TAFLBF
TAF
KLBF 020520Z 0206/0306 14006KT P6SM SCT090 BKN200
     FM020900 VRB03KT P6SM SCT200
     FM021700 18010KT P6SM SCT200
     FM022300 17008KT P6SM BKN090=



000
FTUS43 KLBF 020500
TAFLBF
TAF
KLBF 020520Z 0206/0306 14006KT P6SM SCT090 BKN200
     FM020900 VRB03KT P6SM SCT200
     FM021700 18010KT P6SM SCT200
     FM022300 17008KT P6SM BKN090=



000
FTUS43 KLBF 020500
TAFVTN
TAF
KVTN 020520Z 0206/0306 18005KT P6SM SKC
     FM021700 19012G18KT P6SM SCT200
     FM022200 19010KT P6SM BKN090=



000
FTUS43 KLBF 012300
TAFVTN
TAF
KVTN 012320Z 0200/0224 14005KT P6SM SKC
     FM021700 19012G18KT P6SM SCT200=



000
FTUS43 KLBF 012300
TAFVTN
TAF
KVTN 012320Z 0200/0224 14005KT P6SM SKC
     FM021700 19012G18KT P6SM SCT200=



000
FTUS43 KLBF 012300
TAFLBF
TAF
KLBF 012320Z 0200/0224 14006KT P6SM BKN090
     FM021700 18010KT P6SM SCT200=



000
FTUS43 KLBF 012300
TAFLBF
TAF
KLBF 012320Z 0200/0224 14006KT P6SM BKN090
     FM021700 18010KT P6SM SCT200=



000
FTUS43 KLBF 011700
TAFVTN
TAF
KVTN 011720Z 0118/0218 VRB05KT P6SM FEW250
     FM020000 17007KT P6SM SKC
     FM021600 19012G18KT P6SM SCT200=



000
FTUS43 KLBF 011700
TAFLBF
TAF
KLBF 011720Z 0118/0218 VRB06KT P6SM FEW100 SCT250
     FM012200 14007KT P6SM BKN100
     FM021700 18010KT P6SM SCT200=



000
FTUS43 KLBF 011700
TAFLBF
TAF
KLBF 011720Z 0118/0218 VRB06KT P6SM FEW100 SCT250
     FM012200 14007KT P6SM BKN100
     FM021700 18010KT P6SM SCT200=



000
FTUS43 KLBF 011700
TAFVTN
TAF
KVTN 011720Z 0118/0218 VRB05KT P6SM FEW250
     FM020000 17007KT P6SM SKC
     FM021600 19012G18KT P6SM SCT200=



000
FTUS43 KLBF 011100
TAFVTN
TAF
KVTN 011121Z 0112/0212 35007KT P6SM SCT090
     FM011300 35008KT P6SM SCT200
     FM011900 34008KT P6SM SKC
     FM020000 13007KT P6SM SKC
     FM020600 18007KT P6SM SCT200=



000
FTUS43 KLBF 011100
TAFLBF
TAF
KLBF 011121Z 0112/0212 02010KT P6SM BKN100
     FM011500 03010KT P6SM SCT100 SCT200
     FM012100 VRB05KT P6SM BKN100
     FM020500 14006KT P6SM BKN200=



000
FTUS43 KLBF 010500
TAFLBF
TAF
KLBF 010520Z 0106/0206 02010KT P6SM BKN100
     FM012100 VRB05KT P6SM BKN100=



000
FTUS43 KLBF 010500
TAFVTN
TAF
KVTN 010520Z 0106/0206 01009KT P6SM OVC080
      TEMPO 0106/0107 P6SM -TSRA SCT040 OVC080CB
     FM011100 35007KT P6SM SCT120
     FM020000 VRB04KT P6SM FEW120=



000
FTUS43 KLBF 010500
TAFVTN
TAF
KVTN 010520Z 0106/0206 01009KT P6SM OVC080
      TEMPO 0106/0107 P6SM -TSRA SCT040 OVC080CB
     FM011100 35007KT P6SM SCT120
     FM020000 VRB04KT P6SM FEW120=



000
FTUS43 KLBF 010500
TAFLBF
TAF
KLBF 010520Z 0106/0206 02010KT P6SM BKN100
     FM012100 VRB05KT P6SM BKN100=



000
FTUS43 KLBF 010400 AAB
TAFLBF
TAF AMD
KLBF 010406Z 0104/0124 33007KT P6SM BKN100
      TEMPO 0104/0106 03020G30KT P6SM -TSRA OVC070CB
     FM010900 04006KT P6SM BKN100
      TEMPO 0111/0115 P6SM BKN025
     FM011700 05010KT P6SM BKN100=



000
FTUS43 KLBF 010400 AAB
TAFLBF
TAF AMD
KLBF 010406Z 0104/0124 33007KT P6SM BKN100
      TEMPO 0104/0106 03020G30KT P6SM -TSRA OVC070CB
     FM010900 04006KT P6SM BKN100
      TEMPO 0111/0115 P6SM BKN025
     FM011700 05010KT P6SM BKN100=



000
FTUS43 KLBF 010300 AAB
TAFVTN
TAF AMD
KVTN 010343Z 0104/0124 33006KT P6SM OVC080
      TEMPO 0104/0106 P6SM -TSRA SCT040 OVC080CB
     FM011500 02007KT P6SM SCT080=



000
FTUS43 KLBF 010300 AAA
TAFLBF
TAF AMD
KLBF 010339Z 0104/0124 12008KT P6SM BKN100
      TEMPO 0104/0106 P6SM -TSRA OVC070CB
     FM010900 04006KT P6SM BKN100
      TEMPO 0111/0115 P6SM BKN025
     FM011700 05010KT P6SM BKN100=



000
FTUS43 KLBF 010300 AAA
TAFLBF
TAF AMD
KLBF 010339Z 0104/0124 12008KT P6SM BKN100
      TEMPO 0104/0106 P6SM -TSRA OVC070CB
     FM010900 04006KT P6SM BKN100
      TEMPO 0111/0115 P6SM BKN025
     FM011700 05010KT P6SM BKN100=



000
FTUS43 KLBF 010100 AAA
TAFLBF
TAF AMD
KLBF 010114Z 0101/0124 15009KT P6SM SCT100
     FM010400 12006KT P6SM BKN100
      TEMPO 0105/0109 4SM TSRA OVC040CB
     FM010900 04006KT P6SM BKN100
      TEMPO 0111/0115 P6SM BKN025
     FM011700 05010KT P6SM BKN100=



000
FTUS43 KLBF 010100 AAA
TAFLBF
TAF AMD
KLBF 010114Z 0101/0124 15009KT P6SM SCT100
     FM010400 12006KT P6SM BKN100
      TEMPO 0105/0109 4SM TSRA OVC040CB
     FM010900 04006KT P6SM BKN100
      TEMPO 0111/0115 P6SM BKN025
     FM011700 05010KT P6SM BKN100=



000
FTUS43 KLBF 010000 AAA
TAFVTN
TAF AMD
KVTN 010049Z 0101/0124 34014G20KT P6SM BKN100
     FM010300 36007KT P6SM OVC080
     FM011500 02007KT P6SM SCT080=



000
FTUS43 KLBF 010000 AAA
TAFVTN
TAF AMD
KVTN 010049Z 0101/0124 34014G20KT P6SM BKN100
     FM010300 36007KT P6SM OVC080
     FM011500 02007KT P6SM SCT080=



000
FTUS43 KLBF 302300
TAFVTN
TAF
KVTN 302324Z 0100/0124 16013KT P6SM SCT100
      TEMPO 0100/0101 -TSRA BKN070CB OVC150
     FM010200 23004KT P6SM BKN100 BKN300
     FM010600 36007KT P6SM OVC080
     FM011500 02007KT P6SM SCT080=



000
FTUS43 KLBF 302300
TAFLBF
TAF
KLBF 302324Z 0100/0124 17014G19KT P6SM SCT100
     FM010200 12006KT P6SM BKN100
      TEMPO 0105/0109 4SM TSRA OVC040CB
     FM010900 04006KT P6SM BKN100
      TEMPO 0111/0115 P6SM BKN025
     FM011700 05010KT P6SM BKN100=



000
FTUS43 KLBF 302300
TAFVTN
TAF
KVTN 302324Z 0100/0124 16013KT P6SM SCT100
      TEMPO 0100/0101 -TSRA BKN070CB OVC150
     FM010200 23004KT P6SM BKN100 BKN300
     FM010600 36007KT P6SM OVC080
     FM011500 02007KT P6SM SCT080=



000
FTUS43 KLBF 302300
TAFLBF
TAF
KLBF 302324Z 0100/0124 17014G19KT P6SM SCT100
     FM010200 12006KT P6SM BKN100
      TEMPO 0105/0109 4SM TSRA OVC040CB
     FM010900 04006KT P6SM BKN100
      TEMPO 0111/0115 P6SM BKN025
     FM011700 05010KT P6SM BKN100=



000
FTUS43 KLBF 302200 AAA
TAFVTN
TAF AMD
KVTN 302235Z 3023/0118 19013G19KT P6SM SCT100
      TEMPO 3023/0101 -TSRA BKN070CB OVC150
     FM010200 23004KT P6SM BKN120 BKN300
     FM010600 32007KT P6SM OVC080=



000
FTUS43 KLBF 301700
TAFLBF
TAF
KLBF 301740Z 3018/0118 16015G22KT P6SM SKC
     FM010200 12006KT P6SM BKN120 BKN250
     FM010900 04006KT P6SM BKN100 BKN200=



000
FTUS43 KLBF 301700
TAFVTN
TAF
KVTN 301740Z 3018/0118 18019G27KT P6SM SKC
     FM010000 23004KT P6SM BKN120 BKN300
     FM010600 32007KT P6SM OVC080=



    US Dept of Commerce
    National Oceanic and Atmospheric Administration
    National Weather Service
    1325 East West Highway
    Silver Spring, MD 20910
    Page Author: NWS Internet Services Team
Disclaimer
Information Quality
Credits
Glossary
Privacy Policy
Freedom of Information Act (FOIA)
About Us
Career Opportunities